createdAt,value
2018-07-17T00:02:20.413Z,82.80
2018-07-17T00:04:47.592Z,81.77
2018-07-17T00:07:14.630Z,79.77
2018-07-17T00:09:41.762Z,81.69
2018-07-17T00:12:08.805Z,81.72
2018-07-17T00:14:35.860Z,81.00
2018-07-17T00:17:02.976Z,81.28
2018-07-17T00:19:29.980Z,81.47
2018-07-17T00:21:57.077Z,82.58
2018-07-17T00:24:24.096Z,82.15
2018-07-17T00:26:51.123Z,82.44
2018-07-17T00:29:18.350Z,82.05
2018-07-17T00:31:45.384Z,82.28
2018-07-17T00:34:12.407Z,80.96
2018-07-17T00:36:39.461Z,82.55
2018-07-17T00:39:06.841Z,84.82
2018-07-17T00:41:33.850Z,84.90
2018-07-17T00:44:01.113Z,83.65
2018-07-17T00:46:28.123Z,82.73
2018-07-17T00:48:55.207Z,82.90
2018-07-17T00:51:22.299Z,83.10
2018-07-17T00:53:49.250Z,82.55
2018-07-17T00:56:16.321Z,83.77
2018-07-17T00:58:43.335Z,82.89
2018-07-17T01:01:09.983Z,83.25
2018-07-17T01:03:42.552Z,84.94
2018-07-17T01:06:15.324Z,84.87
2018-07-17T01:08:48.214Z,86.06
2018-07-17T01:11:20.977Z,86.81
2018-07-17T01:13:59.068Z,85.64
2018-07-17T01:16:26.220Z,86.13
2018-07-17T01:18:53.253Z,86.46
2018-07-17T01:21:20.284Z,86.11
2018-07-17T01:23:47.300Z,85.91
2018-07-17T01:26:14.308Z,86.34
2018-07-17T01:28:41.329Z,87.56
2018-07-17T01:31:08.355Z,85.31
2018-07-17T01:33:35.381Z,85.38
2018-07-17T01:36:02.426Z,84.42
2018-07-17T01:38:29.576Z,84.50
2018-07-17T01:41:03.605Z,85.29
2018-07-17T01:43:30.706Z,86.52
2018-07-17T01:45:57.737Z,86.42
2018-07-17T01:48:24.768Z,84.47
2018-07-17T01:50:51.817Z,84.61
2018-07-17T01:53:19.011Z,85.08
2018-07-17T01:55:46.032Z,86.00
2018-07-17T01:58:13.109Z,87.41
2018-07-17T02:00:40.173Z,88.48
2018-07-17T02:03:07.310Z,86.95
2018-07-17T02:05:34.327Z,85.94
2018-07-17T02:08:01.361Z,86.18
2018-07-17T02:10:28.379Z,86.44
2018-07-17T02:12:55.418Z,87.70
2018-07-17T02:15:22.449Z,88.24
2018-07-17T02:17:49.482Z,87.53
2018-07-17T02:20:16.489Z,86.93
2018-07-17T02:22:43.491Z,86.78
2018-07-17T02:25:10.521Z,88.36
2018-07-17T02:27:37.787Z,88.89
2018-07-17T02:30:04.836Z,88.71
2018-07-17T02:32:31.830Z,87.41
2018-07-17T02:34:58.876Z,88.67
2018-07-17T02:37:25.886Z,88.03
2018-07-17T02:39:52.901Z,88.04
2018-07-17T02:42:19.952Z,88.71
2018-07-17T02:44:46.961Z,87.13
2018-07-17T02:47:13.983Z,88.60
2018-07-17T02:49:40.988Z,89.68
2018-07-17T02:52:08.013Z,91.70
2018-07-17T02:54:35.014Z,90.15
2018-07-17T02:57:02.333Z,90.72
2018-07-17T02:59:29.422Z,91.06
2018-07-17T03:01:56.501Z,90.72
2018-07-17T03:04:23.542Z,90.56
2018-07-17T03:06:50.622Z,89.65
2018-07-17T03:09:17.599Z,89.23
2018-07-17T03:11:44.620Z,91.02
2018-07-17T03:14:11.640Z,91.53
2018-07-17T03:16:38.727Z,91.19
2018-07-17T03:19:05.774Z,92.57
2018-07-17T03:21:32.780Z,92.70
2018-07-17T03:23:59.829Z,92.23
2018-07-17T03:26:26.824Z,92.04
2018-07-17T03:28:53.846Z,91.26
2018-07-17T03:31:20.864Z,89.40
2018-07-17T03:33:47.873Z,88.61
2018-07-17T03:36:14.945Z,89.15
2018-07-17T03:38:41.957Z,89.09
2018-07-17T03:41:08.981Z,89.98
2018-07-17T03:43:36.003Z,90.25
2018-07-17T03:46:03.016Z,89.80
2018-07-17T03:48:30.641Z,88.46
2018-07-17T03:50:57.700Z,87.03
2018-07-17T03:53:24.932Z,87.06
2018-07-17T03:55:51.978Z,88.00
2018-07-17T03:58:19.064Z,89.34
2018-07-17T04:00:46.132Z,91.63
2018-07-17T04:03:13.242Z,89.99
2018-07-17T04:05:40.422Z,90.59
2018-07-17T04:08:07.546Z,90.35
2018-07-17T04:10:34.621Z,90.93
2018-07-17T04:13:01.636Z,92.91
2018-07-17T04:15:28.636Z,93.83
2018-07-17T04:17:55.662Z,92.64
2018-07-17T04:20:22.672Z,91.56
2018-07-17T04:22:49.729Z,91.06
2018-07-17T04:25:16.844Z,91.27
2018-07-17T04:27:43.842Z,90.22
2018-07-17T04:32:52.297Z,91.35
2018-07-17T04:35:19.313Z,91.08
2018-07-17T04:37:46.335Z,90.73
2018-07-17T04:40:13.347Z,90.01
2018-07-17T04:42:40.730Z,89.69
2018-07-17T04:45:07.744Z,90.43
2018-07-17T04:47:34.753Z,89.44
2018-07-17T04:50:01.843Z,89.32
2018-07-17T04:52:28.909Z,88.87
2018-07-17T04:54:55.925Z,89.05
2018-07-17T04:57:22.985Z,87.73
2018-07-17T04:59:50.001Z,86.49
2018-07-17T05:02:17.006Z,87.15
2018-07-17T05:04:44.057Z,86.94
2018-07-17T05:07:11.093Z,86.53
2018-07-17T05:09:38.134Z,88.00
2018-07-17T05:12:05.187Z,86.49
2018-07-17T05:14:32.201Z,86.24
2018-07-17T05:16:59.988Z,86.70
2018-07-17T05:19:27.012Z,86.11
2018-07-17T05:21:54.097Z,86.04
2018-07-17T05:24:21.141Z,87.26
2018-07-17T05:26:48.195Z,86.77
2018-07-17T05:29:15.210Z,87.09
2018-07-17T05:31:42.299Z,86.26
2018-07-17T05:34:09.309Z,86.03
2018-07-17T05:36:36.368Z,85.97
2018-07-17T05:39:05.758Z,85.51
2018-07-17T05:41:32.878Z,84.75
2018-07-17T05:43:59.900Z,85.15
2018-07-17T05:46:26.990Z,84.57
2018-07-17T05:48:54.021Z,83.91
2018-07-17T05:51:21.049Z,83.54
2018-07-17T05:53:48.050Z,82.90
2018-07-17T05:56:15.063Z,83.65
2018-07-17T05:58:42.111Z,83.06
2018-07-17T06:01:09.121Z,81.20
2018-07-17T06:03:40.275Z,81.75
2018-07-17T06:06:07.392Z,81.07
2018-07-17T06:08:34.594Z,80.62
2018-07-17T06:11:01.753Z,79.55
2018-07-17T06:13:28.780Z,78.74
2018-07-17T06:15:55.872Z,79.12
2018-07-17T06:18:22.895Z,78.62
2018-07-17T06:20:49.999Z,78.65
2018-07-17T06:23:17.049Z,77.55
2018-07-17T06:25:47.670Z,77.77
2018-07-17T06:28:14.701Z,78.03
2018-07-17T06:30:41.977Z,77.08
2018-07-17T06:33:09.091Z,78.22
2018-07-17T06:35:36.173Z,78.44
2018-07-17T06:38:03.292Z,78.53
2018-07-17T06:40:30.329Z,77.65
2018-07-17T06:42:57.352Z,76.88
2018-07-17T06:45:24.438Z,77.03
2018-07-17T06:47:51.473Z,73.93
2018-07-17T06:50:18.640Z,73.31
2018-07-17T06:52:45.708Z,72.95
2018-07-17T06:55:12.737Z,73.87
2018-07-17T06:57:39.988Z,72.87
2018-07-17T07:00:07.219Z,72.02
2018-07-17T07:02:34.318Z,72.90
2018-07-17T07:05:01.341Z,73.38
2018-07-17T07:07:28.445Z,74.26
2018-07-17T07:09:55.453Z,73.78
2018-07-17T07:12:22.453Z,70.30
2018-07-17T07:14:49.545Z,69.61
2018-07-17T07:17:16.606Z,69.12
2018-07-17T07:19:43.716Z,67.81
2018-07-17T07:22:10.904Z,66.70
2018-07-17T07:24:37.902Z,68.70
2018-07-17T07:27:04.987Z,66.77
2018-07-17T07:29:32.085Z,66.72
2018-07-17T07:31:59.123Z,66.13
2018-07-17T07:34:26.375Z,66.33
2018-07-17T07:36:53.428Z,64.58
2018-07-17T07:39:20.470Z,64.13
2018-07-17T07:41:48.066Z,61.91
2018-07-17T07:44:15.192Z,62.48
2018-07-17T07:46:42.210Z,63.00
2018-07-17T07:49:09.271Z,61.88
2018-07-17T07:51:36.358Z,62.12
2018-07-17T07:56:37.248Z,60.91
2018-07-17T07:59:04.320Z,60.16
2018-07-17T08:01:31.349Z,60.47
2018-07-17T08:03:58.445Z,61.10
2018-07-17T08:06:25.405Z,60.48
2018-07-17T08:08:52.650Z,59.77
2018-07-17T08:11:19.697Z,59.48
2018-07-17T08:13:46.743Z,57.96
2018-07-17T08:16:13.785Z,57.90
2018-07-17T08:18:40.917Z,58.07
2018-07-17T08:21:08.028Z,58.04
2018-07-17T08:23:35.092Z,59.57
2018-07-17T08:26:02.122Z,59.03
2018-07-17T08:28:29.189Z,57.17
2018-07-17T08:30:56.228Z,58.40
2018-07-17T08:33:23.251Z,58.10
2018-07-17T08:35:50.286Z,57.52
2018-07-17T08:38:17.747Z,58.23
2018-07-17T08:40:44.780Z,56.64
2018-07-17T08:43:11.935Z,58.01
2018-07-17T08:45:38.927Z,56.77
2018-07-17T08:48:05.966Z,52.43
2018-07-17T08:50:33.577Z,54.06
2018-07-17T08:53:00.586Z,53.38
2018-07-17T08:55:27.599Z,54.94
2018-07-17T08:57:54.958Z,53.47
2018-07-17T09:00:22.149Z,53.66
2018-07-17T09:02:49.236Z,52.90
2018-07-17T09:05:16.353Z,52.03
2018-07-17T09:07:43.677Z,51.20
2018-07-17T09:10:11.029Z,49.04
2018-07-17T09:12:38.794Z,49.76
2018-07-17T09:15:06.242Z,49.86
2018-07-17T09:17:33.551Z,51.51
2018-07-17T09:20:00.963Z,51.25
2018-07-17T09:22:28.174Z,51.55
2018-07-17T09:24:55.452Z,51.24
2018-07-17T09:27:22.856Z,48.37
2018-07-17T09:29:50.218Z,47.44
2018-07-17T09:32:19.887Z,48.10
2018-07-17T09:34:48.017Z,48.98
2018-07-17T09:37:15.442Z,48.92
2018-07-17T09:39:43.181Z,45.86
2018-07-17T09:42:10.281Z,45.30
2018-07-17T09:44:37.566Z,44.16
2018-07-17T09:47:05.288Z,46.48
2018-07-17T09:49:32.400Z,44.80
2018-07-17T09:51:59.529Z,46.04
2018-07-17T09:54:26.673Z,44.33
2018-07-17T09:56:53.999Z,44.01
2018-07-17T09:59:21.520Z,42.34
2018-07-17T10:01:54.949Z,43.06
2018-07-17T10:04:22.005Z,41.92
2018-07-17T10:06:49.189Z,41.65
2018-07-17T10:09:16.683Z,42.26
2018-07-17T10:11:43.882Z,40.98
2018-07-17T10:14:11.151Z,40.46
2018-07-17T10:16:38.540Z,40.65
2018-07-17T10:19:05.829Z,41.51
2018-07-17T10:21:33.077Z,41.67
2018-07-17T10:24:00.421Z,40.67
2018-07-17T10:26:27.728Z,39.86
2018-07-17T10:28:54.952Z,42.60
2018-07-17T10:31:22.373Z,39.31
2018-07-17T10:33:49.733Z,40.70
2018-07-17T10:36:16.808Z,40.12
2018-07-17T10:38:43.940Z,40.93
2018-07-17T10:41:11.594Z,39.52
2018-07-17T10:43:38.862Z,40.28
2018-07-17T10:46:06.389Z,39.53
2018-07-17T10:48:33.755Z,40.13
2018-07-17T10:51:00.838Z,38.16
2018-07-17T10:53:28.453Z,38.32
2018-07-17T10:55:55.537Z,41.11
2018-07-17T10:58:22.786Z,37.70
2018-07-17T11:00:50.133Z,37.13
2018-07-17T11:03:17.281Z,37.35
2018-07-17T11:05:44.650Z,37.46
2018-07-17T11:08:11.999Z,38.60
2018-07-17T11:10:39.104Z,36.62
2018-07-17T11:13:06.362Z,37.73
2018-07-17T11:15:35.438Z,38.49
2018-07-17T11:18:03.637Z,40.95
2018-07-17T11:20:32.149Z,38.30
2018-07-17T11:23:01.638Z,36.89
2018-07-17T11:25:30.050Z,39.16
2018-07-17T11:27:58.689Z,37.00
2018-07-17T11:30:27.032Z,39.16
2018-07-17T11:32:54.861Z,37.40
2018-07-17T11:35:22.579Z,37.35
2018-07-17T11:37:51.660Z,37.29
2018-07-17T11:40:19.652Z,37.54
2018-07-17T11:42:47.634Z,36.79
2018-07-17T11:45:15.676Z,36.39
2018-07-17T11:47:43.677Z,36.50
2018-07-17T11:50:11.362Z,36.26
2018-07-17T11:52:39.739Z,36.50
2018-07-17T11:55:07.901Z,35.92
2018-07-17T11:57:35.760Z,38.04
2018-07-17T12:00:03.714Z,37.66
2018-07-17T12:02:31.498Z,36.09
2018-07-17T12:04:59.544Z,34.96
2018-07-17T12:07:26.605Z,35.71
2018-07-17T12:09:53.632Z,34.24
2018-07-17T12:12:20.812Z,35.93
2018-07-17T12:14:47.820Z,36.20
2018-07-17T12:17:14.918Z,36.58
2018-07-17T12:19:41.941Z,37.42
2018-07-17T12:22:08.971Z,37.47
2018-07-17T12:24:36.074Z,36.41
2018-07-17T12:27:03.224Z,36.91
2018-07-17T12:29:30.397Z,36.46
2018-07-17T12:31:57.439Z,36.23
2018-07-17T12:34:24.498Z,35.81
2018-07-17T12:36:51.578Z,36.37
2018-07-17T12:39:18.728Z,35.42
2018-07-17T12:41:45.756Z,33.30
2018-07-17T12:44:13.266Z,34.57
2018-07-17T12:46:40.279Z,33.55
2018-07-17T12:49:07.316Z,34.43
2018-07-17T12:51:34.552Z,33.93
2018-07-17T12:54:01.821Z,33.91
2018-07-17T12:56:28.858Z,33.15
2018-07-17T12:58:55.900Z,32.22
2018-07-17T13:01:23.036Z,31.53
2018-07-17T13:03:50.429Z,31.36
2018-07-17T13:06:17.503Z,30.63
2018-07-17T13:08:44.561Z,32.66
2018-07-17T13:11:11.690Z,32.07
2018-07-17T13:13:38.810Z,31.18
2018-07-17T13:16:06.537Z,31.44
2018-07-17T13:18:33.584Z,32.02
2018-07-17T13:21:00.706Z,31.30
2018-07-17T13:23:27.912Z,30.95
2018-07-17T13:25:54.946Z,31.71
2018-07-17T13:28:22.109Z,28.62
2018-07-17T13:30:49.207Z,29.56
2018-07-17T13:33:16.223Z,27.99
2018-07-17T13:35:43.564Z,30.34
2018-07-17T13:38:10.674Z,29.74
2018-07-17T13:40:37.785Z,27.61
2018-07-17T13:43:04.949Z,28.91
2018-07-17T13:45:32.049Z,29.54
2018-07-17T13:47:59.074Z,28.89
2018-07-17T13:50:26.120Z,27.05
2018-07-17T13:52:53.327Z,29.23
2018-07-17T13:55:20.331Z,29.50
2018-07-17T13:57:47.361Z,27.83
2018-07-17T14:00:14.446Z,27.50
2018-07-17T14:02:41.938Z,29.26
2018-07-17T14:05:09.501Z,28.20
2018-07-17T14:07:36.644Z,27.97
2018-07-17T14:10:03.744Z,28.48
2018-07-17T14:12:30.855Z,27.64
2018-07-17T14:14:57.926Z,28.78
2018-07-17T14:17:24.954Z,29.18
2018-07-17T14:19:51.996Z,29.13
2018-07-17T14:22:19.115Z,28.75
2018-07-17T14:24:47.025Z,29.28
2018-07-17T14:27:14.096Z,28.60
2018-07-17T14:29:41.134Z,27.92
2018-07-17T14:32:08.171Z,28.76
2018-07-17T14:34:35.277Z,28.12
2018-07-17T14:37:02.637Z,28.47
2018-07-17T14:39:29.680Z,28.55
2018-07-17T14:41:56.789Z,28.50
2018-07-17T14:44:24.135Z,26.80
2018-07-17T14:46:51.208Z,28.03
2018-07-17T14:49:18.277Z,27.91
2018-07-17T14:51:45.433Z,28.39
2018-07-17T14:54:12.473Z,27.07
2018-07-17T14:56:39.519Z,27.61
2018-07-17T14:59:07.052Z,28.99
2018-07-17T15:01:34.115Z,29.76
2018-07-17T15:04:01.231Z,28.47
2018-07-17T15:06:28.348Z,28.20
2018-07-17T15:08:55.492Z,29.36
2018-07-17T15:11:22.708Z,29.31
2018-07-17T15:13:49.816Z,30.36
2018-07-17T15:16:16.973Z,29.42
2018-07-17T15:18:44.080Z,31.04
2018-07-17T15:21:11.094Z,31.36
2018-07-17T15:23:38.140Z,31.80
2018-07-17T15:26:05.203Z,31.95
2018-07-17T15:28:32.307Z,31.29
2018-07-17T15:30:59.373Z,32.73
2018-07-17T15:33:26.478Z,30.44
2018-07-17T15:35:53.654Z,30.95
2018-07-17T15:38:20.740Z,28.68
2018-07-17T15:40:47.953Z,31.81
2018-07-17T15:43:15.120Z,28.83
2018-07-17T15:45:42.261Z,29.93
2018-07-17T15:48:09.444Z,31.10
2018-07-17T15:50:36.448Z,31.06
2018-07-17T15:53:03.480Z,28.63
2018-07-17T15:55:30.617Z,28.18
2018-07-17T15:57:57.729Z,30.85
2018-07-17T16:00:24.904Z,25.91
2018-07-17T16:02:51.924Z,25.63
2018-07-17T16:05:18.987Z,26.73
2018-07-17T16:07:46.149Z,30.29
2018-07-17T16:10:13.268Z,25.85
2018-07-17T16:12:40.408Z,26.58
2018-07-17T16:15:07.540Z,26.00
2018-07-17T16:17:35.053Z,27.17
2018-07-17T16:20:04.032Z,26.36
2018-07-17T16:22:31.040Z,33.39
2018-07-17T16:24:58.094Z,28.08
2018-07-17T16:27:25.123Z,27.12
2018-07-17T16:29:52.175Z,29.25
2018-07-17T16:32:19.228Z,28.46
2018-07-17T16:34:46.300Z,26.04
2018-07-17T16:37:13.344Z,31.46
2018-07-17T16:39:40.479Z,26.79
2018-07-17T16:42:07.745Z,23.94
2018-07-17T16:44:34.856Z,24.63
2018-07-17T16:47:01.883Z,23.26
2018-07-17T16:49:28.969Z,24.43
2018-07-17T16:51:56.096Z,21.02
2018-07-17T16:54:23.108Z,20.94
2018-07-17T16:56:50.217Z,21.97
2018-07-17T16:59:17.300Z,24.33
2018-07-17T17:01:44.367Z,23.94
2018-07-17T17:04:11.392Z,28.94
2018-07-17T17:06:38.505Z,23.11
2018-07-17T17:09:08.083Z,22.79
2018-07-17T17:11:34.986Z,27.58
2018-07-17T17:14:02.050Z,24.16
2018-07-17T17:16:29.168Z,25.11
2018-07-17T17:18:56.177Z,27.31
2018-07-17T17:21:23.197Z,31.16
2018-07-17T17:23:50.280Z,28.07
2018-07-17T17:26:17.362Z,30.83
2018-07-17T17:28:44.377Z,30.82
2018-07-17T17:31:11.438Z,31.10
2018-07-17T17:33:38.484Z,35.67
2018-07-17T17:36:05.515Z,30.76
2018-07-17T17:38:32.544Z,33.21
2018-07-17T17:40:59.633Z,31.13
2018-07-17T17:43:26.637Z,30.63
2018-07-17T17:45:53.699Z,35.16
2018-07-17T17:48:20.712Z,31.49
2018-07-17T17:50:47.734Z,33.76
2018-07-17T17:53:14.754Z,31.53
2018-07-17T17:55:42.066Z,35.23
2018-07-17T17:58:09.068Z,30.09
2018-07-17T18:00:36.092Z,30.68
2018-07-17T18:03:03.112Z,34.13
2018-07-17T18:05:30.116Z,32.83
2018-07-17T18:07:57.166Z,33.18
2018-07-17T18:10:24.197Z,36.01
2018-07-17T18:12:51.669Z,35.91
2018-07-17T18:15:18.678Z,32.89
2018-07-17T18:17:45.688Z,34.06
2018-07-17T18:20:12.727Z,32.85
2018-07-17T18:22:39.796Z,33.61
2018-07-17T18:25:06.836Z,34.43
2018-07-17T18:27:33.829Z,34.16
2018-07-17T18:30:01.113Z,34.74
2018-07-17T18:32:28.159Z,33.68
2018-07-17T18:34:55.241Z,34.11
2018-07-17T18:37:22.276Z,35.70
2018-07-17T18:39:49.374Z,33.43
2018-07-17T18:42:16.492Z,33.95
2018-07-17T18:44:43.432Z,34.58
2018-07-17T18:47:10.573Z,35.88
2018-07-17T18:49:37.692Z,33.87
2018-07-17T18:52:04.756Z,33.99
2018-07-17T18:54:31.802Z,34.40
2018-07-17T18:56:59.429Z,34.28
2018-07-17T18:59:26.552Z,34.24
2018-07-17T19:01:53.737Z,35.38
2018-07-17T19:04:20.853Z,35.18
2018-07-17T19:06:47.881Z,33.52
2018-07-17T19:09:14.897Z,35.51
2018-07-17T19:11:41.925Z,35.34
2018-07-17T19:14:08.926Z,36.21
2018-07-17T19:16:36.940Z,39.91
2018-07-17T19:19:04.313Z,46.76
2018-07-17T19:21:31.362Z,54.51
2018-07-17T19:23:58.511Z,58.96
2018-07-17T19:26:25.596Z,62.79
2018-07-17T19:28:53.281Z,66.26
2018-07-17T19:31:20.328Z,67.65
2018-07-17T19:33:47.380Z,69.28
2018-07-17T19:36:14.421Z,70.28
2018-07-17T19:38:41.456Z,72.83
2018-07-17T19:41:08.584Z,71.68
2018-07-17T19:43:35.807Z,73.87
2018-07-17T19:46:02.905Z,73.67
2018-07-17T19:48:30.019Z,75.34
2018-07-17T19:50:57.062Z,75.34
2018-07-17T19:53:24.112Z,76.37
2018-07-17T19:55:51.129Z,76.51
2018-07-17T19:58:18.168Z,77.64
2018-07-17T20:00:45.200Z,77.32
2018-07-17T20:03:12.225Z,77.98
2018-07-17T20:05:39.297Z,77.43
2018-07-17T20:08:07.203Z,77.72
2018-07-17T20:10:34.821Z,77.12
2018-07-17T20:13:02.930Z,77.58
2018-07-17T20:15:30.750Z,77.97
2018-07-17T20:17:58.741Z,77.67
2018-07-17T20:20:26.614Z,76.89
2018-07-17T20:22:53.717Z,77.51
2018-07-17T20:25:20.773Z,77.57
2018-07-17T20:27:50.742Z,76.39
2018-07-17T20:30:18.985Z,75.96
2018-07-17T20:32:46.739Z,75.84
2018-07-17T20:35:14.959Z,75.81
2018-07-17T20:37:45.683Z,76.20
2018-07-17T20:40:18.329Z,75.31
2018-07-17T20:42:48.838Z,71.81
2018-07-17T20:45:19.806Z,73.16
2018-07-17T20:47:48.427Z,71.61
2018-07-17T20:50:15.712Z,71.99
2018-07-17T20:52:43.158Z,71.98
2018-07-17T20:55:10.282Z,71.59
2018-07-17T20:57:37.672Z,71.33
2018-07-17T21:00:05.323Z,72.10
2018-07-17T21:02:32.589Z,71.87
2018-07-17T21:05:03.012Z,72.21
2018-07-17T21:07:30.226Z,71.78
2018-07-17T21:09:57.556Z,71.96
2018-07-17T21:12:25.641Z,71.58
2018-07-17T21:14:52.972Z,72.78
2018-07-17T21:17:20.025Z,72.65
2018-07-17T21:19:47.174Z,73.07
2018-07-17T21:22:18.829Z,72.50
2018-07-17T21:24:53.719Z,72.91
2018-07-17T21:27:26.513Z,73.43
2018-07-17T21:29:55.961Z,73.76
2018-07-17T21:32:28.206Z,74.16
2018-07-17T21:34:58.435Z,73.64
2018-07-17T21:37:28.682Z,74.06
2018-07-17T21:39:59.053Z,73.89
2018-07-17T21:42:27.982Z,74.24
2018-07-17T21:44:55.476Z,74.49
2018-07-17T21:47:22.577Z,74.52
2018-07-17T21:49:49.668Z,74.17
2018-07-17T21:52:19.583Z,74.33
2018-07-17T21:54:49.160Z,73.67
2018-07-17T21:57:17.052Z,73.65
2018-07-17T21:59:45.499Z,73.62
2018-07-17T22:02:14.335Z,73.96
2018-07-17T22:04:42.441Z,73.52
2018-07-17T22:07:11.886Z,74.25
2018-07-17T22:09:42.031Z,73.71
2018-07-17T22:12:17.098Z,73.92
2018-07-17T22:14:45.940Z,74.72
2018-07-17T22:17:14.646Z,74.66
2018-07-17T22:19:45.234Z,75.26
2018-07-17T22:22:16.129Z,75.29
2018-07-17T22:24:46.276Z,75.40
2018-07-17T22:27:13.450Z,75.71
2018-07-17T22:29:43.511Z,74.61
2018-07-17T22:32:13.439Z,76.72
2018-07-17T22:34:42.647Z,76.27
2018-07-17T22:37:13.332Z,75.01
2018-07-17T22:39:44.655Z,76.08
2018-07-17T22:42:11.964Z,75.33
2018-07-17T22:44:39.161Z,75.87
2018-07-17T22:47:06.305Z,76.83
2018-07-17T22:49:33.710Z,77.42
2018-07-17T22:52:01.633Z,77.10
2018-07-17T22:54:29.009Z,77.58
2018-07-17T22:56:56.152Z,77.75
2018-07-17T22:59:23.445Z,78.24
2018-07-17T23:01:51.098Z,78.88
2018-07-17T23:04:18.535Z,79.71
2018-07-17T23:06:45.722Z,79.97
2018-07-17T23:09:12.861Z,80.48
2018-07-17T23:11:40.302Z,80.95
2018-07-17T23:14:08.112Z,81.32
2018-07-17T23:16:35.585Z,81.94
2018-07-17T23:19:03.291Z,82.08
2018-07-17T23:21:30.500Z,82.70
2018-07-17T23:23:57.659Z,84.08
2018-07-17T23:26:24.889Z,85.58
2018-07-17T23:28:52.374Z,87.40
2018-07-17T23:31:19.901Z,88.37
2018-07-17T23:33:47.518Z,89.18
2018-07-17T23:36:14.722Z,90.26
2018-07-17T23:38:42.123Z,89.63
2018-07-17T23:41:09.341Z,90.65
2018-07-17T23:43:38.857Z,91.37
2018-07-17T23:46:08.269Z,90.74
2018-07-17T23:48:35.488Z,91.30
2018-07-17T23:51:02.569Z,91.23
2018-07-17T23:53:29.865Z,90.23
2018-07-17T23:55:57.232Z,88.18
2018-07-17T23:58:24.277Z,88.04
